Time,TemperatureF,DewpointF,PressureIn,WindDirection,WindDirectionDegrees,WindSpeedMPH,WindSpeedGustMPH,Humidity,HourlyPrecipIn,Conditions,Clouds,dailyrainin,SoftwareType,DateUTC
2013-10-01 00:02:00,58.4,57.0,30.13,WSW,242,0.0,0.0,95,0.00,CLR,,0.00,WeatherDisplay:10.37,2013-10-01 05:02:00,
2013-10-01 00:07:00,58.4,57.0,30.13,WSW,242,0.0,0.0,95,0.00,CLR,,0.00,WeatherDisplay:10.37,2013-10-01 05:07:00,
2013-10-01 00:12:00,58.3,56.9,30.13,WSW,242,0.0,0.0,95,0.00,CLR,,0.00,WeatherDisplay:10.37,2013-10-01 05:12:00,
2013-10-01 00:18:00,58.3,56.9,30.13,WSW,242,0.0,0.0,95,0.00,CLR,,0.00,WeatherDisplay:10.37,2013-10-01 05:18:00,
2013-10-01 00:23:00,58.3,56.9,30.13,WSW,242,0.0,0.0,95,0.00,CLR,,0.00,WeatherDisplay:10.37,2013-10-01 05:23:00,
2013-10-01 00:28:00,58.1,56.7,30.13,WSW,242,0.0,0.0,95,0.00,CLR,,0.00,WeatherDisplay:10.37,2013-10-01 05:28:00,
2013-10-01 00:33:00,58.1,56.7,30.13,WSW,242,0.0,0.0,95,0.00,CLR,,0.00,WeatherDisplay:10.37,2013-10-01 05:33:00,
2013-10-01 00:38:00,58.1,56.7,30.13,WSW,242,0.0,0.0,95,0.00,CLR,,0.00,WeatherDisplay:10.37,2013-10-01 05:38:00,
2013-10-01 00:43:00,58.0,56.6,30.13,WSW,242,0.0,0.0,95,0.00,CLR,,0.00,WeatherDisplay:10.37,2013-10-01 05:43:00,
2013-10-01 00:48:00,58.0,56.9,30.13,WSW,242,0.0,0.0,96,0.00,CLR,,0.00,WeatherDisplay:10.37,2013-10-01 05:48:00,
2013-10-01 00:53:00,57.8,56.7,30.13,WSW,242,0.0,0.0,96,0.00,CLR,,0.00,WeatherDisplay:10.37,2013-10-01 05:53:00,
2013-10-01 00:58:00,57.8,56.7,30.13,WSW,242,0.0,0.0,96,0.00,CLR,,0.00,WeatherDisplay:10.37,2013-10-01 05:58:00,
2013-10-01 01:03:00,57.6,56.5,30.13,WSW,242,0.0,0.0,96,0.00,CLR,,0.00,WeatherDisplay:10.37,2013-10-01 06:03:00,
2013-10-01 01:08:00,57.6,56.5,30.13,WSW,242,0.0,0.0,96,0.00,CLR,,0.00,WeatherDisplay:10.37,2013-10-01 06:08:00,
2013-10-01 01:13:00,57.5,56.4,30.13,WSW,242,0.0,0.0,96,0.00,CLR,,0.00,WeatherDisplay:10.37,2013-10-01 06:13:00,
2013-10-01 01:18:00,57.5,56.4,30.14,WSW,242,0.0,0.0,96,0.00,CLR,,0.00,WeatherDisplay:10.37,2013-10-01 06:18:00,
2013-10-01 01:23:00,57.3,56.2,30.14,WSW,242,0.0,0.0,96,0.00,CLR,,0.00,WeatherDisplay:10.37,2013-10-01 06:23:00,
2013-10-01 01:28:00,57.3,56.2,30.14,WSW,242,0.0,0.0,96,0.00,CLR,,0.00,WeatherDisplay:10.37,2013-10-01 06:28:00,
2013-10-01 01:33:00,57.3,56.2,30.14,WSW,242,0.0,0.0,96,0.00,CLR,,0.00,WeatherDisplay:10.37,2013-10-01 06:33:00,
2013-10-01 01:38:00,57.3,56.2,30.13,WSW,242,0.0,0.0,96,0.00,CLR,,0.00,WeatherDisplay:10.37,2013-10-01 06:38:00,
2013-10-01 01:43:00,57.3,56.2,30.13,WSW,242,0.0,0.0,96,0.00,CLR,,0.00,WeatherDisplay:10.37,2013-10-01 06:43:00,
2013-10-01 01:48:00,57.2,56.1,30.13,WSW,242,0.0,0.0,96,0.00,CLR,,0.00,WeatherDisplay:10.37,2013-10-01 06:48:00,
2013-10-01 01:53:00,57.2,56.1,30.14,WSW,242,0.0,0.0,96,0.00,CLR,,0.00,WeatherDisplay:10.37,2013-10-01 06:53:00,
2013-10-01 01:58:00,57.0,55.9,30.14,WSW,242,0.0,0.0,96,0.00,CLR,,0.00,WeatherDisplay:10.37,2013-10-01 06:58:00,
2013-10-01 02:03:00,57.0,55.9,30.14,WSW,242,0.0,0.0,96,0.00,CLR,,0.00,WeatherDisplay:10.37,2013-10-01 07:03:00,
2013-10-01 02:08:00,57.0,55.9,30.14,WSW,242,0.0,0.0,96,0.00,CLR,,0.00,WeatherDisplay:10.37,2013-10-01 07:08:00,
2013-10-01 02:13:00,56.9,55.8,30.14,WSW,242,0.0,0.0,96,0.00,CLR,,0.00,WeatherDisplay:10.37,2013-10-01 07:13:00,
2013-10-01 02:18:00,56.9,55.8,30.14,WSW,242,0.0,0.0,96,0.00,CLR,,0.00,WeatherDisplay:10.37,2013-10-01 07:18:00,
2013-10-01 02:23:00,56.9,55.8,30.14,WSW,242,0.0,0.0,96,0.00,CLR,,0.00,WeatherDisplay:10.37,2013-10-01 07:23:00,
2013-10-01 02:28:00,56.9,55.8,30.14,WSW,242,0.0,0.0,96,0.00,CLR,,0.00,WeatherDisplay:10.37,2013-10-01 07:28:00,
2013-10-01 02:33:00,56.7,55.6,30.14,WSW,242,0.0,0.0,96,0.00,CLR,,0.00,WeatherDisplay:10.37,2013-10-01 07:33:00,
2013-10-01 02:38:00,56.7,55.6,30.14,WSW,242,0.0,0.0,96,0.00,CLR,,0.00,WeatherDisplay:10.37,2013-10-01 07:38:00,
2013-10-01 02:43:00,56.6,55.5,30.14,WSW,242,0.0,0.0,96,0.00,CLR,,0.00,WeatherDisplay:10.37,2013-10-01 07:43:00,
2013-10-01 02:48:00,56.6,55.5,30.14,WSW,242,0.0,0.0,96,0.00,CLR,,0.00,WeatherDisplay:10.37,2013-10-01 07:48:00,
2013-10-01 02:53:00,56.5,55.4,30.14,WSW,242,0.0,0.0,96,0.00,CLR,,0.00,WeatherDisplay:10.37,2013-10-01 07:53:00,
2013-10-01 02:58:00,56.5,55.4,30.14,WSW,242,0.0,0.0,96,0.00,CLR,,0.00,WeatherDisplay:10.37,2013-10-01 07:58:00,
2013-10-01 03:03:00,56.5,55.4,30.15,WSW,242,0.0,0.0,96,0.00,CLR,,0.00,WeatherDisplay:10.37,2013-10-01 08:03:00,
2013-10-01 03:08:00,56.5,55.4,30.15,WSW,242,0.0,0.0,96,0.00,CLR,,0.00,WeatherDisplay:10.37,2013-10-01 08:08:00,
2013-10-01 03:14:00,56.5,55.4,30.15,WSW,242,0.0,0.0,96,0.00,CLR,,0.00,WeatherDisplay:10.37,2013-10-01 08:14:00,
2013-10-01 03:19:00,56.3,55.2,30.15,WSW,242,0.0,0.0,96,0.00,CLR,,0.00,WeatherDisplay:10.37,2013-10-01 08:19:00,
2013-10-01 03:24:00,56.3,55.2,30.15,WSW,242,0.0,0.0,96,0.00,CLR,,0.00,WeatherDisplay:10.37,2013-10-01 08:24:00,
2013-10-01 03:29:00,56.3,55.2,30.15,WSW,242,0.0,0.0,96,0.00,CLR,,0.00,WeatherDisplay:10.37,2013-10-01 08:29:00,
2013-10-01 03:34:00,56.5,55.4,30.15,WSW,242,0.0,0.0,96,0.00,CLR,,0.00,WeatherDisplay:10.37,2013-10-01 08:34:00,
2013-10-01 03:39:00,56.6,55.5,30.16,WSW,242,0.0,0.0,96,0.00,CLR,,0.00,WeatherDisplay:10.37,2013-10-01 08:39:00,
2013-10-01 03:44:00,56.9,56.1,30.16,WSW,242,0.0,0.0,97,0.00,CLR,,0.00,WeatherDisplay:10.37,2013-10-01 08:44:00,
2013-10-01 03:50:00,57.2,56.4,30.16,WSW,242,0.0,0.0,97,0.00,CLR,,0.00,WeatherDisplay:10.37,2013-10-01 08:50:00,
2013-10-01 03:55:00,57.3,56.5,30.16,WSW,242,0.0,0.0,97,0.00,CLR,,0.00,WeatherDisplay:10.37,2013-10-01 08:55:00,
2013-10-01 04:00:00,57.3,56.5,30.16,WSW,242,0.0,0.0,97,0.00,CLR,,0.00,WeatherDisplay:10.37,2013-10-01 09:00:00,
2013-10-01 04:04:00,57.5,56.7,30.16,WSW,242,0.0,0.0,97,0.00,CLR,,0.00,WeatherDisplay:10.37,2013-10-01 09:04:00,
2013-10-01 04:10:00,57.5,56.7,30.16,WSW,242,0.0,0.0,97,0.00,CLR,,0.00,WeatherDisplay:10.37,2013-10-01 09:10:00,
2013-10-01 04:15:00,57.6,56.8,30.16,WSW,242,0.0,0.0,97,0.00,CLR,,0.00,WeatherDisplay:10.37,2013-10-01 09:15:00,
2013-10-01 04:20:00,57.8,57.0,30.17,WSW,242,0.0,0.0,97,0.00,CLR,,0.00,WeatherDisplay:10.37,2013-10-01 09:20:00,
2013-10-01 04:25:00,57.8,57.0,30.17,WSW,242,0.0,0.0,97,0.00,CLR,,0.00,WeatherDisplay:10.37,2013-10-01 09:25:00,
2013-10-01 04:30:00,57.8,57.0,30.17,WSW,242,0.0,0.0,97,0.00,CLR,,0.00,WeatherDisplay:10.37,2013-10-01 09:30:00,
2013-10-01 04:35:00,57.8,57.0,30.17,WSW,242,0.0,0.0,97,0.00,CLR,,0.00,WeatherDisplay:10.37,2013-10-01 09:35:00,
2013-10-01 04:40:00,58.0,57.2,30.17,WSW,242,0.0,0.0,97,0.00,CLR,,0.00,WeatherDisplay:10.37,2013-10-01 09:40:00,
2013-10-01 04:45:00,58.0,57.2,30.18,WSW,242,0.0,0.0,97,0.00,CLR,,0.00,WeatherDisplay:10.37,2013-10-01 09:45:00,
2013-10-01 04:50:00,58.1,57.3,30.18,WSW,242,0.0,0.0,97,0.00,CLR,,0.00,WeatherDisplay:10.37,2013-10-01 09:50:00,
2013-10-01 04:55:00,58.1,57.3,30.18,WSW,242,0.0,0.0,97,0.00,CLR,,0.00,WeatherDisplay:10.37,2013-10-01 09:55:00,
2013-10-01 05:00:00,58.3,57.5,30.18,WSW,242,0.0,0.0,97,0.00,CLR,,0.00,WeatherDisplay:10.37,2013-10-01 10:00:00,
2013-10-01 05:05:00,58.3,57.5,30.18,WSW,242,0.0,0.0,97,0.00,CLR,,0.00,WeatherDisplay:10.37,2013-10-01 10:05:00,
2013-10-01 05:10:00,58.4,57.6,30.18,WSW,242,0.0,0.0,97,0.00,CLR,,0.00,WeatherDisplay:10.37,2013-10-01 10:10:00,
2013-10-01 05:15:00,58.4,57.6,30.19,WSW,242,0.0,0.0,97,0.00,CLR,,0.00,WeatherDisplay:10.37,2013-10-01 10:15:00,
2013-10-01 05:20:00,58.4,57.6,30.19,WSW,242,0.0,0.0,97,0.00,CLR,,0.00,WeatherDisplay:10.37,2013-10-01 10:20:00,
2013-10-01 05:25:00,58.4,57.6,30.19,WSW,242,0.0,0.0,97,0.00,CLR,,0.00,WeatherDisplay:10.37,2013-10-01 10:25:00,
2013-10-01 05:30:00,58.4,57.6,30.19,WSW,242,0.0,0.0,97,0.00,CLR,,0.00,WeatherDisplay:10.37,2013-10-01 10:30:00,
2013-10-01 05:35:00,58.4,57.6,30.19,WSW,242,0.0,0.0,97,0.00,CLR,,0.00,WeatherDisplay:10.37,2013-10-01 10:35:00,
2013-10-01 05:40:00,58.6,57.8,30.19,WSW,242,0.0,0.0,97,0.00,CLR,,0.00,WeatherDisplay:10.37,2013-10-01 10:40:00,
2013-10-01 05:45:00,58.6,57.8,30.19,WSW,242,0.0,0.0,97,0.00,CLR,,0.00,WeatherDisplay:10.37,2013-10-01 10:45:00,
2013-10-01 05:51:00,58.7,57.9,30.20,WSW,242,0.0,0.0,97,0.00,CLR,,0.00,WeatherDisplay:10.37,2013-10-01 10:51:00,
2013-10-01 05:56:00,58.7,57.9,30.20,WSW,242,0.0,0.0,97,0.00,CLR,,0.00,WeatherDisplay:10.37,2013-10-01 10:56:00,
2013-10-01 06:01:00,58.7,57.9,30.20,WSW,242,0.0,0.0,97,0.00,CLR,,0.00,WeatherDisplay:10.37,2013-10-01 11:01:00,
2013-10-01 06:06:00,58.7,57.9,30.21,WSW,242,0.0,0.0,97,0.00,CLR,,0.00,WeatherDisplay:10.37,2013-10-01 11:06:00,
2013-10-01 06:11:00,58.7,57.9,30.21,WSW,242,0.0,0.0,97,0.00,CLR,,0.00,WeatherDisplay:10.37,2013-10-01 11:11:00,
2013-10-01 06:16:00,58.7,57.6,30.21,WSW,242,0.0,0.0,96,0.00,CLR,,0.00,WeatherDisplay:10.37,2013-10-01 11:16:00,
2013-10-01 06:21:00,58.7,57.6,30.21,WSW,242,0.0,0.0,96,0.00,CLR,,0.00,WeatherDisplay:10.37,2013-10-01 11:21:00,
2013-10-01 06:26:00,58.7,57.6,30.21,WSW,242,0.0,0.0,96,0.00,CLR,,0.00,WeatherDisplay:10.37,2013-10-01 11:26:00,
2013-10-01 06:31:00,58.9,57.8,30.21,WSW,242,0.0,0.0,96,0.00,CLR,,0.00,WeatherDisplay:10.37,2013-10-01 11:31:00,
2013-10-01 06:36:00,58.9,57.8,30.21,WSW,242,0.0,0.0,96,0.00,CLR,,0.00,WeatherDisplay:10.37,2013-10-01 11:36:00,
2013-10-01 06:41:00,59.0,57.9,30.21,WSW,242,0.0,0.0,96,0.00,CLR,,0.00,WeatherDisplay:10.37,2013-10-01 11:41:00,
2013-10-01 06:46:00,59.0,57.9,30.21,WSW,242,0.0,0.0,96,0.00,CLR,,0.00,WeatherDisplay:10.37,2013-10-01 11:46:00,
2013-10-01 06:51:00,59.0,57.9,30.21,WSW,242,0.0,0.0,96,0.00,CLR,,0.00,WeatherDisplay:10.37,2013-10-01 11:51:00,
2013-10-01 06:56:00,59.2,58.1,30.21,WSW,242,0.0,0.0,96,0.00,CLR,,0.00,WeatherDisplay:10.37,2013-10-01 11:56:00,
2013-10-01 07:02:00,59.0,57.9,30.21,WSW,242,0.0,0.0,96,0.00,CLR,,0.00,WeatherDisplay:10.37,2013-10-01 12:02:00,
2013-10-01 07:07:00,59.0,57.9,30.22,WSW,242,0.0,0.0,96,0.00,CLR,,0.00,WeatherDisplay:10.37,2013-10-01 12:07:00,
2013-10-01 07:12:00,59.0,57.9,30.22,WSW,242,0.0,0.0,96,0.00,CLR,,0.00,WeatherDisplay:10.37,2013-10-01 12:12:00,
2013-10-01 07:17:00,59.0,57.9,30.22,WSW,242,0.0,0.0,96,0.00,CLR,,0.00,WeatherDisplay:10.37,2013-10-01 12:17:00,
2013-10-01 07:22:00,59.2,58.1,30.22,WSW,242,0.0,0.0,96,0.00,CLR,,0.00,WeatherDisplay:10.37,2013-10-01 12:22:00,
2013-10-01 07:27:00,59.2,58.1,30.22,WSW,242,0.0,0.0,96,0.00,CLR,,0.00,WeatherDisplay:10.37,2013-10-01 12:27:00,
2013-10-01 07:32:00,59.2,58.1,30.23,WSW,242,0.0,0.0,96,0.00,CLR,,0.00,WeatherDisplay:10.37,2013-10-01 12:32:00,
2013-10-01 07:37:00,59.3,58.2,30.23,WSW,242,0.0,0.0,96,0.00,CLR,,0.00,WeatherDisplay:10.37,2013-10-01 12:37:00,
2013-10-01 07:42:00,59.5,58.4,30.23,WSW,242,0.0,0.0,96,0.00,CLR,,0.00,WeatherDisplay:10.37,2013-10-01 12:42:00,
2013-10-01 07:47:00,59.8,58.7,30.23,WSW,242,0.0,0.0,96,0.00,CLR,,0.00,WeatherDisplay:10.37,2013-10-01 12:47:00,
2013-10-01 07:52:00,60.4,59.3,30.23,WSW,242,0.0,0.0,96,0.00,CLR,,0.00,WeatherDisplay:10.37,2013-10-01 12:52:00,
2013-10-01 07:57:00,61.0,59.9,30.23,WSW,242,0.0,0.0,96,0.00,CLR,,0.00,WeatherDisplay:10.37,2013-10-01 12:57:00,
2013-10-01 08:02:00,62.0,60.3,30.23,WSW,242,0.0,0.0,94,0.00,CLR,,0.00,WeatherDisplay:10.37,2013-10-01 13:02:00,
2013-10-01 08:07:00,62.6,60.2,30.23,WSW,242,0.0,0.0,92,0.00,CLR,,0.00,WeatherDisplay:10.37,2013-10-01 13:07:00,
2013-10-01 08:12:00,63.2,60.5,30.23,WSW,242,0.0,0.0,91,0.00,CLR,,0.00,WeatherDisplay:10.37,2013-10-01 13:12:00,
2013-10-01 08:17:00,64.5,60.9,30.23,WSW,242,0.0,0.0,88,0.00,CLR,,0.00,WeatherDisplay:10.37,2013-10-01 13:17:00,
2013-10-01 08:22:00,65.2,60.9,30.23,WSW,242,0.0,0.0,86,0.00,CLR,,0.00,WeatherDisplay:10.37,2013-10-01 13:22:00,
2013-10-01 08:27:00,66.1,60.8,30.23,WSW,242,0.0,0.0,83,0.00,CLR,,0.00,WeatherDisplay:10.37,2013-10-01 13:27:00,
2013-10-01 08:32:00,66.8,61.1,30.23,WSW,242,0.0,0.0,82,0.00,CLR,,0.00,WeatherDisplay:10.37,2013-10-01 13:32:00,
2013-10-01 08:37:00,67.3,60.9,30.23,WSW,242,0.0,0.0,80,0.00,CLR,,0.00,WeatherDisplay:10.37,2013-10-01 13:37:00,
2013-10-01 08:43:00,67.6,60.9,30.23,WSW,242,0.0,0.0,79,0.00,CLR,,0.00,WeatherDisplay:10.37,2013-10-01 13:43:00,
2013-10-01 08:48:00,68.1,61.0,30.23,WSW,242,0.0,0.0,78,0.00,CLR,,0.00,WeatherDisplay:10.37,2013-10-01 13:48:00,
2013-10-01 08:53:00,68.8,60.9,30.23,WSW,242,0.0,0.0,76,0.00,CLR,,0.00,WeatherDisplay:10.37,2013-10-01 13:53:00,
2013-10-01 08:58:00,69.6,60.9,30.23,WSW,242,0.0,0.0,74,0.00,CLR,,0.00,WeatherDisplay:10.37,2013-10-01 13:58:00,
2013-10-01 09:03:00,69.9,60.8,30.23,WSW,242,0.0,0.0,73,0.00,CLR,,0.00,WeatherDisplay:10.37,2013-10-01 14:03:00,
2013-10-01 09:08:00,70.4,61.3,30.23,WSW,242,1.1,0.0,73,0.00,CLR,,0.00,WeatherDisplay:10.37,2013-10-01 14:08:00,
2013-10-01 09:13:00,70.6,60.3,30.23,NE,47,3.5,3.5,70,0.00,CLR,,0.00,WeatherDisplay:10.37,2013-10-01 14:13:00,
2013-10-01 09:18:00,70.4,60.9,30.23,NE,47,0.0,0.0,72,0.00,CLR,,0.00,WeatherDisplay:10.37,2013-10-01 14:18:00,
2013-10-01 09:23:00,70.9,60.6,30.23,NE,47,0.0,0.0,70,0.00,CLR,,0.00,WeatherDisplay:10.37,2013-10-01 14:23:00,
2013-10-01 09:28:00,71.5,61.2,30.23,NE,47,0.0,0.0,70,0.00,CLR,,0.00,WeatherDisplay:10.37,2013-10-01 14:28:00,
2013-10-01 09:33:00,71.3,61.0,30.23,NE,47,0.0,0.0,70,0.00,CLR,,0.00,WeatherDisplay:10.37,2013-10-01 14:33:00,
2013-10-01 09:38:00,71.1,60.8,30.23,NE,47,0.0,0.0,70,0.00,CLR,,0.00,WeatherDisplay:10.37,2013-10-01 14:38:00,
2013-10-01 09:44:00,70.9,60.6,30.23,NE,47,0.0,0.0,70,0.00,CLR,,0.00,WeatherDisplay:10.37,2013-10-01 14:44:00,
2013-10-01 09:49:00,71.3,61.8,30.23,NE,47,1.1,0.0,72,0.00,CLR,,0.00,WeatherDisplay:10.37,2013-10-01 14:49:00,
2013-10-01 09:54:00,72.1,62.2,30.23,NE,42,1.1,0.0,71,0.00,CLR,,0.00,WeatherDisplay:10.37,2013-10-01 14:54:00,
2013-10-01 09:59:00,72.7,62.3,30.23,SW,225,0.0,0.0,70,0.00,CLR,,0.00,WeatherDisplay:10.37,2013-10-01 14:59:00,
2013-10-01 10:04:00,73.0,61.8,30.23,SW,219,0.0,0.0,68,0.00,CLR,,0.00,WeatherDisplay:10.37,2013-10-01 15:04:00,
2013-10-01 10:09:00,73.9,63.5,30.23,SW,216,0.0,0.0,70,0.00,CLR,,0.00,WeatherDisplay:10.37,2013-10-01 15:09:00,
2013-10-01 10:14:00,73.7,62.1,30.22,NE,45,1.1,0.0,67,0.00,CLR,,0.00,WeatherDisplay:10.37,2013-10-01 15:14:00,
2013-10-01 10:19:00,74.0,63.2,30.23,SW,223,1.1,1.1,69,0.00,CLR,,0.00,WeatherDisplay:10.37,2013-10-01 15:19:00,
2013-10-01 10:24:00,74.2,63.4,30.22,North,9,3.5,3.5,69,0.00,CLR,,0.00,WeatherDisplay:10.37,2013-10-01 15:24:00,
2013-10-01 10:29:00,74.7,63.9,30.23,North,9,0.0,0.0,69,0.00,CLR,,0.00,WeatherDisplay:10.37,2013-10-01 15:29:00,
2013-10-01 10:34:00,74.9,63.6,30.23,South,178,3.5,3.5,68,0.00,CLR,,0.00,WeatherDisplay:10.37,2013-10-01 15:34:00,
2013-10-01 10:39:00,75.1,64.2,30.23,SW,217,0.0,0.1,69,0.00,CLR,,0.00,WeatherDisplay:10.37,2013-10-01 15:39:00,
2013-10-01 10:44:00,75.1,64.6,30.23,South,184,1.1,0.0,70,0.00,CLR,,0.00,WeatherDisplay:10.37,2013-10-01 15:44:00,
2013-10-01 10:49:00,74.9,63.6,30.22,SE,128,0.0,0.0,68,0.00,CLR,,0.00,WeatherDisplay:10.37,2013-10-01 15:49:00,
2013-10-01 10:54:00,74.9,63.6,30.22,SE,144,1.1,0.0,68,0.00,CLR,,0.00,WeatherDisplay:10.37,2013-10-01 15:54:00,
2013-10-01 10:59:00,74.7,64.3,30.22,SSE,159,1.1,0.0,70,0.00,CLR,,0.00,WeatherDisplay:10.37,2013-10-01 15:59:00,
2013-10-01 11:04:00,75.3,63.6,30.22,SSW,196,3.5,3.5,67,0.00,CLR,,0.00,WeatherDisplay:10.37,2013-10-01 16:04:00,
2013-10-01 11:09:00,75.6,63.9,30.22,SSE,157,1.1,0.0,67,0.00,CLR,,0.00,WeatherDisplay:10.37,2013-10-01 16:09:00,
2013-10-01 11:14:00,76.3,64.5,30.22,SSE,148,0.0,0.0,67,0.00,CLR,,0.00,WeatherDisplay:10.37,2013-10-01 16:14:00,
2013-10-01 11:19:00,76.7,64.9,30.22,SW,215,0.0,0.0,67,0.00,CLR,,0.00,WeatherDisplay:10.37,2013-10-01 16:19:00,
2013-10-01 11:24:00,76.8,64.6,30.22,SE,132,0.0,0.1,66,0.00,CLR,,0.00,WeatherDisplay:10.37,2013-10-01 16:24:00,
2013-10-01 11:29:00,77.0,64.8,30.21,SSE,150,1.1,1.1,66,0.00,CLR,,0.00,WeatherDisplay:10.37,2013-10-01 16:29:00,
2013-10-01 11:31:00,77.2,65.4,30.21,SSE,167,0.0,0.0,67,0.00,CLR,,0.00,WeatherDisplay:10.37,2013-10-01 16:31:00,
2013-10-01 11:36:00,77.6,64.5,30.21,South,169,0.0,0.0,64,0.00,CLR,,0.00,WeatherDisplay:10.37,2013-10-01 16:36:00,
2013-10-01 11:41:00,77.7,65.0,30.20,South,169,0.0,0.0,65,0.00,CLR,,0.00,WeatherDisplay:10.37,2013-10-01 16:41:00,
2013-10-01 11:46:00,77.7,64.5,30.20,SSE,163,3.5,0.0,64,0.00,CLR,,0.00,WeatherDisplay:10.37,2013-10-01 16:46:00,
2013-10-01 11:52:00,77.7,64.5,30.20,South,188,1.1,1.1,64,0.00,CLR,,0.00,WeatherDisplay:10.37,2013-10-01 16:52:00,
2013-10-01 11:57:00,78.1,66.2,30.20,SSE,164,0.0,0.0,67,0.00,CLR,,0.00,WeatherDisplay:10.37,2013-10-01 16:57:00,
2013-10-01 12:02:00,78.5,65.8,30.20,SSE,165,0.0,0.0,65,0.00,CLR,,0.00,WeatherDisplay:10.37,2013-10-01 17:02:00,
2013-10-01 12:07:00,78.3,64.7,30.20,West,263,3.5,3.5,63,0.00,CLR,,0.00,WeatherDisplay:10.37,2013-10-01 17:07:00,
2013-10-01 12:12:00,78.3,65.6,30.20,South,173,0.0,0.0,65,0.00,CLR,,0.00,WeatherDisplay:10.37,2013-10-01 17:12:00,
2013-10-01 12:17:00,78.5,66.2,30.20,West,265,1.1,1.1,66,0.00,CLR,,0.00,WeatherDisplay:10.37,2013-10-01 17:17:00,
2013-10-01 12:22:00,78.8,65.1,30.20,SSE,148,1.1,0.0,63,0.00,CLR,,0.00,WeatherDisplay:10.37,2013-10-01 17:22:00,
2013-10-01 12:27:00,79.2,65.1,30.20,SW,223,1.1,0.0,62,0.00,CLR,,0.00,WeatherDisplay:10.37,2013-10-01 17:27:00,
2013-10-01 12:32:00,79.2,64.6,30.19,SSE,157,1.1,1.1,61,0.00,CLR,,0.00,WeatherDisplay:10.37,2013-10-01 17:32:00,
2013-10-01 12:37:00,79.0,64.4,30.19,SSW,202,3.5,3.5,61,0.00,CLR,,0.00,WeatherDisplay:10.37,2013-10-01 17:37:00,
2013-10-01 12:42:00,78.8,65.1,30.19,South,188,0.0,0.1,63,0.00,CLR,,0.00,WeatherDisplay:10.37,2013-10-01 17:42:00,
2013-10-01 12:47:00,79.2,65.1,30.19,East,91,0.0,0.0,62,0.00,CLR,,0.00,WeatherDisplay:10.37,2013-10-01 17:47:00,
2013-10-01 12:52:00,79.4,65.2,30.18,WSW,243,1.1,0.0,62,0.00,CLR,,0.00,WeatherDisplay:10.37,2013-10-01 17:52:00,
2013-10-01 12:57:00,79.8,65.6,30.18,WSW,252,0.0,0.1,62,0.00,CLR,,0.00,WeatherDisplay:10.37,2013-10-01 17:57:00,
2013-10-01 13:02:00,80.1,64.5,30.18,WSW,237,2.3,2.3,59,0.00,CLR,,0.00,WeatherDisplay:10.37,2013-10-01 18:02:00,
2013-10-01 13:07:00,80.3,64.7,30.17,South,185,0.0,0.0,59,0.00,CLR,,0.00,WeatherDisplay:10.37,2013-10-01 18:07:00,
2013-10-01 13:12:00,80.1,64.0,30.17,East,90,4.6,4.6,58,0.00,CLR,,0.00,WeatherDisplay:10.37,2013-10-01 18:12:00,
2013-10-01 13:17:00,80.3,65.1,30.17,SE,136,1.1,0.0,60,0.00,CLR,,0.00,WeatherDisplay:10.37,2013-10-01 18:17:00,
2013-10-01 13:22:00,81.1,64.4,30.17,WSW,243,1.0,0.0,57,0.00,CLR,,0.00,WeatherDisplay:10.37,2013-10-01 18:22:00,
2013-10-01 13:28:00,81.6,64.9,30.16,WNW,285,1.1,0.0,57,0.00,CLR,,0.00,WeatherDisplay:10.37,2013-10-01 18:28:00,
2013-10-01 13:33:00,81.6,64.9,30.16,SSW,198,0.0,0.0,57,0.00,CLR,,0.00,WeatherDisplay:10.37,2013-10-01 18:33:00,
2013-10-01 13:38:00,81.6,63.9,30.16,SSE,150,3.5,3.5,55,0.00,CLR,,0.00,WeatherDisplay:10.37,2013-10-01 18:38:00,
2013-10-01 13:43:00,81.8,63.5,30.16,SE,136,0.0,0.0,54,0.00,CLR,,0.00,WeatherDisplay:10.37,2013-10-01 18:43:00,
2013-10-01 13:48:00,81.6,64.4,30.15,ENE,75,0.0,0.0,56,0.00,CLR,,0.00,WeatherDisplay:10.37,2013-10-01 18:48:00,
2013-10-01 13:53:00,81.8,63.0,30.15,SSW,192,0.0,0.0,53,0.00,CLR,,0.00,WeatherDisplay:10.37,2013-10-01 18:53:00,
2013-10-01 13:58:00,81.8,61.9,30.15,ESE,107,0.0,0.0,51,0.00,CLR,,0.00,WeatherDisplay:10.37,2013-10-01 18:58:00,
2013-10-01 14:03:00,82.2,63.4,30.14,SSW,208,1.1,0.0,53,0.00,CLR,,0.00,WeatherDisplay:10.37,2013-10-01 19:03:00,
2013-10-01 14:09:00,83.2,63.2,30.14,SSW,208,0.0,0.0,51,0.00,CLR,,0.00,WeatherDisplay:10.37,2013-10-01 19:09:00,
2013-10-01 14:14:00,83.4,63.4,30.14,SW,236,2.3,2.3,51,0.00,CLR,,0.00,WeatherDisplay:10.37,2013-10-01 19:14:00,
2013-10-01 14:19:00,83.0,64.6,30.14,ESE,114,1.1,0.0,54,0.00,CLR,,0.00,WeatherDisplay:10.37,2013-10-01 19:19:00,
2013-10-01 14:24:00,83.0,63.6,30.14,West,262,1.0,0.0,52,0.00,CLR,,0.00,WeatherDisplay:10.37,2013-10-01 19:24:00,
2013-10-01 14:29:00,83.0,63.6,30.13,West,263,3.5,3.5,52,0.00,CLR,,0.00,WeatherDisplay:10.37,2013-10-01 19:29:00,
2013-10-01 14:34:00,82.8,62.8,30.13,West,263,0.0,0.0,51,0.00,CLR,,0.00,WeatherDisplay:10.37,2013-10-01 19:34:00,
2013-10-01 14:39:00,83.4,63.4,30.13,West,263,0.0,0.0,51,0.00,CLR,,0.00,WeatherDisplay:10.37,2013-10-01 19:39:00,
2013-10-01 14:44:00,84.0,63.4,30.13,SSW,195,0.0,0.0,50,0.00,CLR,,0.00,WeatherDisplay:10.37,2013-10-01 19:44:00,
2013-10-01 14:49:00,84.3,64.2,30.13,South,183,1.0,1.0,51,0.00,CLR,,0.00,WeatherDisplay:10.37,2013-10-01 19:49:00,
2013-10-01 14:54:00,83.8,61.4,30.13,ESE,105,2.3,2.3,47,0.00,CLR,,0.00,WeatherDisplay:10.37,2013-10-01 19:54:00,
2013-10-01 14:59:00,83.8,62.6,30.12,SSW,208,1.1,1.1,49,0.00,CLR,,0.00,WeatherDisplay:10.37,2013-10-01 19:59:00,
2013-10-01 15:04:00,84.0,61.6,30.12,ENE,63,0.0,0.1,47,0.00,CLR,,0.00,WeatherDisplay:10.37,2013-10-01 20:04:00,
2013-10-01 15:09:00,84.5,61.4,30.12,East,88,1.1,0.0,46,0.00,CLR,,0.00,WeatherDisplay:10.37,2013-10-01 20:09:00,
2013-10-01 15:14:00,84.7,64.6,30.12,East,94,0.0,0.0,51,0.00,CLR,,0.00,WeatherDisplay:10.37,2013-10-01 20:14:00,
2013-10-01 15:19:00,84.7,61.6,30.12,ESE,109,2.3,2.3,46,0.00,CLR,,0.00,WeatherDisplay:10.37,2013-10-01 20:19:00,
2013-10-01 15:24:00,84.0,62.2,30.11,South,184,3.5,3.5,48,0.00,CLR,,0.00,WeatherDisplay:10.37,2013-10-01 20:24:00,
2013-10-01 15:29:00,83.8,62.0,30.11,South,178,0.0,0.0,48,0.00,CLR,,0.00,WeatherDisplay:10.37,2013-10-01 20:29:00,
2013-10-01 15:35:00,84.1,62.9,30.11,South,178,0.0,1.0,49,0.00,CLR,,0.00,WeatherDisplay:10.37,2013-10-01 20:35:00,
2013-10-01 15:40:00,83.6,62.4,30.11,South,171,0.0,0.0,49,0.00,CLR,,0.00,WeatherDisplay:10.37,2013-10-01 20:40:00,
2013-10-01 15:45:00,82.8,62.3,30.11,SSE,161,0.0,0.0,50,0.00,CLR,,0.00,WeatherDisplay:10.37,2013-10-01 20:45:00,
2013-10-01 15:50:00,82.6,62.6,30.11,SSE,161,0.0,0.0,51,0.00,CLR,,0.00,WeatherDisplay:10.37,2013-10-01 20:50:00,
2013-10-01 15:55:00,82.0,62.1,30.11,SSE,161,0.0,0.0,51,0.00,CLR,,0.00,WeatherDisplay:10.37,2013-10-01 20:55:00,
2013-10-01 16:00:00,81.8,63.5,30.11,SSE,153,1.1,0.0,54,0.00,CLR,,0.00,WeatherDisplay:10.37,2013-10-01 21:00:00,
2013-10-01 16:05:00,81.2,66.5,30.12,SSE,153,0.0,0.0,61,0.00,CLR,,0.00,WeatherDisplay:10.37,2013-10-01 21:05:00,
2013-10-01 16:10:00,80.5,65.3,30.11,SSE,159,0.0,0.0,60,0.00,CLR,,0.00,WeatherDisplay:10.37,2013-10-01 21:10:00,
2013-10-01 16:15:00,79.9,65.7,30.11,SSE,159,0.0,0.0,62,0.00,CLR,,0.00,WeatherDisplay:10.37,2013-10-01 21:15:00,
2013-10-01 16:20:00,79.6,66.8,30.11,SSE,159,0.0,0.1,65,0.00,CLR,,0.00,WeatherDisplay:10.37,2013-10-01 21:20:00,
2013-10-01 16:25:00,79.0,65.8,30.11,SSE,159,0.0,0.0,64,0.00,CLR,,0.00,WeatherDisplay:10.37,2013-10-01 21:25:00,
2013-10-01 16:30:00,79.0,64.9,30.11,SSE,159,0.0,0.0,62,0.00,CLR,,0.00,WeatherDisplay:10.37,2013-10-01 21:30:00,
2013-10-01 16:35:00,79.2,64.6,30.11,SSE,159,0.0,0.0,61,0.00,CLR,,0.00,WeatherDisplay:10.37,2013-10-01 21:35:00,
2013-10-01 16:40:00,79.6,65.0,30.11,SSE,159,0.0,0.0,61,0.00,CLR,,0.00,WeatherDisplay:10.37,2013-10-01 21:40:00,
2013-10-01 16:45:00,79.8,65.2,30.11,SSE,159,0.0,0.0,61,0.00,CLR,,0.00,WeatherDisplay:10.37,2013-10-01 21:45:00,
2013-10-01 16:50:00,79.6,66.8,30.12,SSE,159,0.0,0.0,65,0.00,CLR,,0.00,WeatherDisplay:10.37,2013-10-01 21:50:00,
2013-10-01 16:55:00,79.6,66.3,30.12,SSE,159,0.0,0.0,64,0.00,CLR,,0.00,WeatherDisplay:10.37,2013-10-01 21:55:00,
2013-10-01 17:01:00,79.8,66.5,30.12,SSE,159,1.1,1.1,64,0.00,CLR,,0.00,WeatherDisplay:10.37,2013-10-01 22:01:00,
2013-10-01 17:08:00,79.8,66.5,30.12,SSE,159,0.0,0.0,64,0.00,CLR,,0.00,WeatherDisplay:10.37,2013-10-01 22:08:00,
2013-10-01 17:13:00,79.8,65.6,30.12,SSE,159,0.0,0.0,62,0.00,CLR,,0.00,WeatherDisplay:10.37,2013-10-01 22:13:00,
2013-10-01 17:18:00,79.6,65.9,30.12,SSE,159,0.0,0.0,63,0.00,CLR,,0.00,WeatherDisplay:10.37,2013-10-01 22:18:00,
2013-10-01 17:23:00,79.2,66.9,30.12,SSE,159,0.0,0.0,66,0.00,CLR,,0.00,WeatherDisplay:10.37,2013-10-01 22:23:00,
2013-10-01 17:28:00,78.6,66.7,30.12,SSE,159,1.1,0.0,67,0.00,CLR,,0.00,WeatherDisplay:10.37,2013-10-01 22:28:00,
2013-10-01 17:33:00,77.9,66.9,30.12,SSE,159,0.0,0.0,69,0.00,CLR,,0.00,WeatherDisplay:10.37,2013-10-01 22:33:00,
2013-10-01 17:38:00,77.4,66.8,30.12,SSE,159,0.0,0.0,70,0.00,CLR,,0.00,WeatherDisplay:10.37,2013-10-01 22:38:00,
2013-10-01 17:43:00,76.7,66.2,30.13,SSE,159,0.0,0.0,70,0.00,CLR,,0.00,WeatherDisplay:10.37,2013-10-01 22:43:00,
2013-10-01 17:48:00,76.1,66.4,30.13,SSE,159,0.0,0.0,72,0.00,CLR,,0.00,WeatherDisplay:10.37,2013-10-01 22:48:00,
2013-10-01 17:53:00,75.6,66.3,30.13,SSE,159,0.0,0.0,73,0.00,CLR,,0.00,WeatherDisplay:10.37,2013-10-01 22:53:00,
2013-10-01 17:58:00,75.1,66.2,30.13,SSE,159,0.0,0.0,74,0.00,CLR,,0.00,WeatherDisplay:10.37,2013-10-01 22:58:00,
2013-10-01 18:03:00,74.6,65.8,30.14,SSE,159,0.0,0.0,74,0.00,CLR,,0.00,WeatherDisplay:10.37,2013-10-01 23:03:00,
2013-10-01 18:08:00,74.0,66.0,30.14,SSE,159,0.0,0.0,76,0.00,CLR,,0.00,WeatherDisplay:10.37,2013-10-01 23:08:00,
2013-10-01 18:13:00,73.5,65.5,30.14,SSE,159,0.0,0.0,76,0.00,CLR,,0.00,WeatherDisplay:10.37,2013-10-01 23:13:00,
2013-10-01 18:18:00,73.2,65.2,30.14,SSE,159,0.0,0.0,76,0.00,CLR,,0.00,WeatherDisplay:10.37,2013-10-01 23:18:00,
2013-10-01 18:20:00,73.0,65.0,30.14,SSE,159,0.0,0.0,76,0.00,CLR,,0.00,WeatherDisplay:10.37,2013-10-01 23:20:00,
2013-10-01 18:25:00,72.7,64.7,30.14,SSE,159,0.0,0.0,76,0.00,CLR,,0.00,WeatherDisplay:10.37,2013-10-01 23:25:00,
2013-10-01 18:30:00,72.3,65.1,30.14,SSE,159,0.0,0.0,78,0.00,CLR,,0.00,WeatherDisplay:10.37,2013-10-01 23:30:00,
2013-10-01 18:35:00,71.8,65.3,30.14,SSE,159,0.0,0.0,80,0.00,CLR,,0.00,WeatherDisplay:10.37,2013-10-01 23:35:00,
2013-10-01 18:40:00,71.3,65.2,30.14,SSE,159,0.0,0.0,81,0.00,CLR,,0.00,WeatherDisplay:10.37,2013-10-01 23:40:00,
2013-10-01 18:45:00,70.9,64.8,30.14,SSE,159,0.0,0.0,81,0.00,CLR,,0.00,WeatherDisplay:10.37,2013-10-01 23:45:00,
2013-10-01 18:50:00,70.4,65.0,30.15,SSE,159,0.0,0.0,83,0.00,CLR,,0.00,WeatherDisplay:10.37,2013-10-01 23:50:00,
2013-10-01 18:55:00,70.1,64.7,30.15,SSE,159,0.0,0.0,83,0.00,CLR,,0.00,WeatherDisplay:10.37,2013-10-01 23:55:00,
2013-10-01 19:00:00,69.8,64.4,30.15,SSE,159,0.0,0.0,83,0.00,CLR,,0.00,WeatherDisplay:10.37,2013-10-02 00:00:00,
2013-10-01 19:05:00,69.4,64.7,30.15,SSE,159,0.0,0.0,85,0.00,CLR,,0.00,WeatherDisplay:10.37,2013-10-02 00:05:00,
2013-10-01 19:10:00,69.1,64.7,30.14,SSE,159,0.0,0.0,86,0.00,CLR,,0.00,WeatherDisplay:10.37,2013-10-02 00:10:00,
2013-10-01 19:15:00,68.8,64.4,30.14,SSE,159,0.0,0.0,86,0.00,CLR,,0.00,WeatherDisplay:10.37,2013-10-02 00:15:00,
2013-10-01 19:20:00,68.6,64.6,30.15,SSE,159,0.0,0.0,87,0.00,CLR,,0.00,WeatherDisplay:10.37,2013-10-02 00:20:00,
2013-10-01 19:25:00,68.3,64.6,30.15,SSE,159,0.0,0.0,88,0.00,CLR,,0.00,WeatherDisplay:10.37,2013-10-02 00:25:00,
2013-10-01 19:30:00,68.1,64.4,30.15,SSE,159,0.0,0.0,88,0.00,CLR,,0.00,WeatherDisplay:10.37,2013-10-02 00:30:00,
2013-10-01 19:35:00,67.9,64.5,30.15,SSE,159,0.0,0.0,89,0.00,CLR,,0.00,WeatherDisplay:10.37,2013-10-02 00:35:00,
2013-10-01 19:40:00,67.8,64.4,30.16,SSE,159,0.0,0.0,89,0.00,CLR,,0.00,WeatherDisplay:10.37,2013-10-02 00:40:00,
2013-10-01 19:45:00,67.6,64.2,30.16,SSE,159,0.0,0.0,89,0.00,CLR,,0.00,WeatherDisplay:10.37,2013-10-02 00:45:00,
2013-10-01 19:50:00,67.4,64.0,30.16,SSE,159,0.0,0.0,89,0.00,CLR,,0.00,WeatherDisplay:10.37,2013-10-02 00:50:00,
2013-10-01 19:55:00,67.3,64.3,30.17,SSE,159,0.0,0.0,90,0.00,CLR,,0.00,WeatherDisplay:10.37,2013-10-02 00:55:00,
2013-10-01 20:00:00,67.1,64.1,30.17,SSE,159,0.0,0.0,90,0.00,CLR,,0.00,WeatherDisplay:10.37,2013-10-02 01:00:00,
2013-10-01 20:05:00,66.9,64.2,30.18,SSE,159,0.0,0.0,91,0.00,CLR,,0.00,WeatherDisplay:10.37,2013-10-02 01:05:00,
2013-10-01 20:10:00,66.8,64.1,30.17,SSE,159,0.0,0.0,91,0.00,CLR,,0.00,WeatherDisplay:10.37,2013-10-02 01:10:00,
2013-10-01 20:15:00,66.6,63.9,30.17,SSE,159,0.0,0.0,91,0.00,CLR,,0.00,WeatherDisplay:10.37,2013-10-02 01:15:00,
2013-10-01 20:20:00,66.4,63.7,30.17,SSE,159,0.0,0.0,91,0.00,CLR,,0.00,WeatherDisplay:10.37,2013-10-02 01:20:00,
2013-10-01 20:25:00,66.3,63.6,30.17,SSE,159,0.0,0.0,91,0.00,CLR,,0.00,WeatherDisplay:10.37,2013-10-02 01:25:00,
2013-10-01 20:30:00,66.1,63.7,30.17,SSE,159,0.0,0.0,92,0.00,CLR,,0.00,WeatherDisplay:10.37,2013-10-02 01:30:00,
2013-10-01 20:35:00,66.0,63.6,30.17,SSE,159,0.0,0.0,92,0.00,CLR,,0.00,WeatherDisplay:10.37,2013-10-02 01:35:00,
2013-10-01 20:40:00,66.0,63.6,30.18,SSE,159,0.0,0.0,92,0.00,CLR,,0.00,WeatherDisplay:10.37,2013-10-02 01:40:00,
2013-10-01 20:45:00,65.8,63.4,30.18,SSE,159,0.0,0.0,92,0.00,CLR,,0.00,WeatherDisplay:10.37,2013-10-02 01:45:00,
2013-10-01 20:50:00,65.6,63.2,30.18,SSE,159,0.0,0.0,92,0.00,CLR,,0.00,WeatherDisplay:10.37,2013-10-02 01:50:00,
2013-10-01 20:55:00,65.6,63.2,30.18,SSE,159,0.0,0.0,92,0.00,CLR,,0.00,WeatherDisplay:10.37,2013-10-02 01:55:00,
2013-10-01 21:00:00,65.5,63.1,30.18,SSE,159,0.0,0.0,92,0.00,CLR,,0.00,WeatherDisplay:10.37,2013-10-02 02:00:00,
2013-10-01 21:05:00,65.3,62.9,30.19,SSE,159,0.0,0.0,92,0.00,CLR,,0.00,WeatherDisplay:10.37,2013-10-02 02:05:00,
2013-10-01 21:10:00,65.2,63.1,30.19,SSE,159,0.0,0.0,93,0.00,CLR,,0.00,WeatherDisplay:10.37,2013-10-02 02:10:00,
2013-10-01 21:15:00,65.2,63.1,30.19,SSE,159,0.0,0.0,93,0.00,CLR,,0.00,WeatherDisplay:10.37,2013-10-02 02:15:00,
2013-10-01 21:20:00,65.0,62.9,30.18,SSE,159,0.0,0.0,93,0.00,CLR,,0.00,WeatherDisplay:10.37,2013-10-02 02:20:00,
2013-10-01 21:25:00,65.0,62.9,30.19,SSE,159,0.0,0.0,93,0.00,CLR,,0.00,WeatherDisplay:10.37,2013-10-02 02:25:00,
2013-10-01 21:30:00,64.8,62.7,30.19,SSE,159,0.0,0.0,93,0.00,CLR,,0.00,WeatherDisplay:10.37,2013-10-02 02:30:00,
2013-10-01 21:35:00,64.7,62.6,30.19,SSE,159,0.0,0.0,93,0.00,CLR,,0.00,WeatherDisplay:10.37,2013-10-02 02:35:00,
2013-10-01 21:40:00,64.5,62.4,30.19,SSE,159,0.0,0.0,93,0.00,CLR,,0.00,WeatherDisplay:10.37,2013-10-02 02:40:00,
2013-10-01 21:45:00,64.3,62.2,30.19,SSE,159,0.0,0.0,93,0.00,CLR,,0.00,WeatherDisplay:10.37,2013-10-02 02:45:00,
2013-10-01 21:50:00,64.3,62.2,30.19,SSE,159,0.0,0.0,93,0.00,CLR,,0.00,WeatherDisplay:10.37,2013-10-02 02:50:00,
2013-10-01 21:55:00,64.2,62.4,30.19,SSE,159,0.0,0.0,94,0.00,CLR,,0.00,WeatherDisplay:10.37,2013-10-02 02:55:00,
2013-10-01 22:00:00,64.2,62.4,30.19,SSE,159,0.0,0.0,94,0.00,CLR,,0.00,WeatherDisplay:10.37,2013-10-02 03:00:00,
2013-10-01 22:05:00,64.0,62.2,30.19,SSE,159,0.0,0.0,94,0.00,CLR,,0.00,WeatherDisplay:10.37,2013-10-02 03:05:00,
2013-10-01 22:10:00,64.0,62.2,30.19,SSE,159,0.0,0.0,94,0.00,CLR,,0.00,WeatherDisplay:10.37,2013-10-02 03:10:00,
2013-10-01 22:15:00,63.9,62.1,30.19,SSE,159,0.0,0.0,94,0.00,CLR,,0.00,WeatherDisplay:10.37,2013-10-02 03:15:00,
2013-10-01 22:20:00,63.9,62.1,30.19,SSE,159,0.0,0.0,94,0.00,CLR,,0.00,WeatherDisplay:10.37,2013-10-02 03:20:00,
2013-10-01 22:25:00,63.7,61.9,30.19,SSE,159,0.0,0.0,94,0.00,CLR,,0.00,WeatherDisplay:10.37,2013-10-02 03:25:00,
2013-10-01 22:30:00,63.7,61.9,30.19,SSE,159,0.0,0.0,94,0.00,CLR,,0.00,WeatherDisplay:10.37,2013-10-02 03:30:00,
2013-10-01 22:35:00,63.5,62.0,30.19,SSE,159,0.0,0.0,95,0.00,CLR,,0.00,WeatherDisplay:10.37,2013-10-02 03:35:00,
2013-10-01 22:40:00,63.5,62.0,30.19,SSE,159,0.0,0.0,95,0.00,CLR,,0.00,WeatherDisplay:10.37,2013-10-02 03:40:00,
2013-10-01 22:45:00,63.5,62.0,30.19,SSE,159,0.0,0.0,95,0.00,CLR,,0.00,WeatherDisplay:10.37,2013-10-02 03:45:00,
2013-10-01 22:50:00,63.4,61.9,30.19,SSE,159,0.0,0.0,95,0.00,CLR,,0.00,WeatherDisplay:10.37,2013-10-02 03:50:00,
2013-10-01 22:55:00,63.2,61.7,30.19,SSE,159,0.0,0.0,95,0.00,CLR,,0.00,WeatherDisplay:10.37,2013-10-02 03:55:00,
2013-10-01 23:00:00,63.1,61.6,30.19,SSE,159,0.0,0.0,95,0.00,CLR,,0.00,WeatherDisplay:10.37,2013-10-02 04:00:00,
2013-10-01 23:01:00,63.1,61.6,30.19,SSE,159,0.0,0.0,95,0.00,CLR,,0.00,WeatherDisplay:10.37,2013-10-02 04:01:00,
2013-10-01 23:02:00,63.1,61.6,30.19,SSE,159,0.0,0.0,95,0.00,CLR,,0.00,WeatherDisplay:10.37,2013-10-02 04:02:00,
2013-10-01 23:04:00,63.1,61.6,30.19,SSE,159,0.0,0.0,95,0.00,CLR,,0.00,WeatherDisplay:10.37,2013-10-02 04:04:00,
2013-10-01 23:09:00,63.1,61.6,30.18,SSE,159,0.0,0.0,95,0.00,CLR,,0.00,WeatherDisplay:10.37,2013-10-02 04:09:00,
2013-10-01 23:14:00,63.1,61.6,30.18,SSE,159,0.0,0.0,95,0.00,CLR,,0.00,WeatherDisplay:10.37,2013-10-02 04:14:00,
2013-10-01 23:19:00,62.9,61.4,30.18,SSE,159,0.0,0.0,95,0.00,CLR,,0.00,WeatherDisplay:10.37,2013-10-02 04:19:00,
2013-10-01 23:24:00,62.9,61.4,30.18,SSE,159,0.0,0.0,95,0.00,CLR,,0.00,WeatherDisplay:10.37,2013-10-02 04:24:00,
2013-10-01 23:29:00,62.7,61.2,30.18,SSE,159,0.0,0.0,95,0.00,CLR,,0.00,WeatherDisplay:10.37,2013-10-02 04:29:00,
2013-10-01 23:34:00,62.7,61.2,30.18,SSE,159,0.0,0.0,95,0.00,CLR,,0.00,WeatherDisplay:10.37,2013-10-02 04:34:00,
2013-10-01 23:40:00,62.6,61.1,30.19,SSE,159,0.0,0.0,95,0.00,CLR,,0.00,WeatherDisplay:10.37,2013-10-02 04:40:00,
2013-10-01 23:45:00,62.6,61.1,30.19,SSE,159,0.0,0.0,95,0.00,CLR,,0.00,WeatherDisplay:10.37,2013-10-02 04:45:00,
2013-10-01 23:50:00,62.4,60.9,30.19,SSE,159,0.0,0.0,95,0.00,CLR,,0.00,WeatherDisplay:10.37,2013-10-02 04:50:00,
2013-10-01 23:54:00,62.3,60.8,30.19,SSE,159,0.0,0.0,95,0.00,CLR,,0.00,WeatherDisplay:10.37,2013-10-02 04:54:00,
2013-10-01 23:59:00,62.3,61.1,30.20,SSE,159,0.0,0.0,96,0.00,CLR,,0.00,WeatherDisplay:10.37,2013-10-02 04:59:00,